createdAt,value
2019-01-03T00:02:24.311Z,99744.84
2019-01-03T00:05:13.857Z,99751.05
2019-01-03T00:08:02.866Z,99752.95
2019-01-03T00:11:02.188Z,99772.28
2019-01-03T00:13:52.061Z,99786.28
2019-01-03T00:17:02.962Z,99787.16
2019-01-03T00:19:57.500Z,99806.12
2019-01-03T00:22:46.751Z,99818.96
2019-01-03T00:25:43.385Z,99824.44
2019-01-03T00:28:27.308Z,99814.53
2019-01-03T00:31:17.299Z,99814.31
2019-01-03T00:34:21.545Z,99814.36
2019-01-03T00:37:10.932Z,99827.08
2019-01-03T00:40:00.085Z,99811.58
2019-01-03T00:42:54.530Z,99821.73
2019-01-03T00:45:43.447Z,99831.61
2019-01-03T00:48:34.302Z,99839.83
2019-01-03T00:51:24.353Z,99841.87
2019-01-03T00:54:23.577Z,99857.02
2019-01-03T00:57:32.630Z,99856.48
2019-01-03T01:00:24.346Z,99862.74
2019-01-03T01:03:28.806Z,99871.05
2019-01-03T01:06:17.008Z,99867.15
2019-01-03T01:09:06.867Z,99875.91
2019-01-03T01:12:07.819Z,99879.68
2019-01-03T01:15:00.520Z,99885.78
2019-01-03T01:17:56.415Z,99883.77
2019-01-03T01:20:46.117Z,99893.70
2019-01-03T01:23:54.794Z,99889.04
2019-01-03T01:26:44.218Z,99898.75
2019-01-03T01:29:41.883Z,99890.62
2019-01-03T01:32:36.485Z,99889.13
2019-01-03T01:35:33.694Z,99892.04
2019-01-03T01:38:37.927Z,99893.27
2019-01-03T01:41:46.971Z,99902.24
2019-01-03T01:44:38.925Z,99896.88
2019-01-03T01:47:30.293Z,99897.58
2019-01-03T01:50:21.589Z,99899.53
2019-01-03T01:53:12.693Z,99908.34
2019-01-03T01:56:01.994Z,99903.27
2019-01-03T01:58:56.386Z,99903.00
2019-01-03T02:01:58.869Z,99898.41
2019-01-03T02:05:05.773Z,99904.03
2019-01-03T02:08:12.963Z,99906.45
2019-01-03T02:11:08.434Z,99917.03
2019-01-03T02:13:59.176Z,99923.28
2019-01-03T02:17:03.763Z,99916.97
2019-01-03T02:19:48.468Z,99925.08
2019-01-03T02:22:38.247Z,99931.31
2019-01-03T02:25:44.868Z,99924.56
2019-01-03T02:28:35.907Z,99936.02
2019-01-03T02:31:45.921Z,99942.06
2019-01-03T02:34:45.683Z,99939.48
2019-01-03T02:37:50.026Z,99941.63
2019-01-03T02:40:51.157Z,99955.20
2019-01-03T02:43:41.340Z,99957.19
2019-01-03T02:46:36.685Z,99948.83
2019-01-03T02:49:29.740Z,99951.84
2019-01-03T02:52:22.822Z,99956.14
2019-01-03T02:55:27.554Z,99960.70
2019-01-03T02:58:17.959Z,99960.56
2019-01-03T03:01:04.801Z,99964.13
2019-01-03T03:04:02.856Z,99971.13
2019-01-03T03:06:55.138Z,99970.92
2019-01-03T03:09:51.456Z,99972.34
2019-01-03T03:12:54.990Z,99974.02
2019-01-03T03:16:00.321Z,99971.88
2019-01-03T03:19:03.128Z,99970.45
2019-01-03T03:21:53.851Z,99970.46
2019-01-03T03:24:51.522Z,99963.70
2019-01-03T03:28:00.116Z,99969.55
2019-01-03T03:30:49.720Z,99964.22
2019-01-03T03:33:38.410Z,99966.52
2019-01-03T03:36:32.374Z,99973.95
2019-01-03T03:39:20.737Z,99975.03
2019-01-03T03:42:12.105Z,99972.25
2019-01-03T03:44:55.591Z,99962.32
2019-01-03T03:47:48.053Z,99961.41
2019-01-03T03:50:33.214Z,99965.83
2019-01-03T03:53:23.026Z,99965.53
2019-01-03T03:56:13.357Z,99967.03
2019-01-03T03:59:20.553Z,99960.72
2019-01-03T04:02:18.478Z,99963.72
2019-01-03T04:05:07.976Z,99961.52
2019-01-03T04:07:57.091Z,99967.97
2019-01-03T04:10:59.753Z,99957.67
2019-01-03T04:14:09.655Z,99958.70
2019-01-03T04:17:06.364Z,99953.16
2019-01-03T04:20:04.274Z,99970.67
2019-01-03T04:23:02.189Z,99959.68
2019-01-03T04:26:00.563Z,99961.19
2019-01-03T04:29:00.286Z,99951.59
2019-01-03T04:31:48.530Z,99944.75
2019-01-03T04:34:51.237Z,99946.95
2019-01-03T04:37:42.355Z,99954.56
2019-01-03T04:40:37.500Z,99958.56
2019-01-03T04:43:35.211Z,99964.85
2019-01-03T04:46:36.193Z,99962.62
2019-01-03T04:49:25.802Z,99978.36
2019-01-03T04:52:14.477Z,99981.69
2019-01-03T04:55:07.662Z,99989.83
2019-01-03T04:58:15.319Z,99984.17
2019-01-03T05:01:17.293Z,99991.35
2019-01-03T05:04:15.449Z,99989.92
2019-01-03T05:07:04.129Z,99988.73
2019-01-03T05:10:02.488Z,99984.29
2019-01-03T05:12:52.967Z,99994.02
2019-01-03T05:15:40.178Z,99994.97
2019-01-03T05:18:32.081Z,100005.64
2019-01-03T05:21:23.568Z,100024.38
2019-01-03T05:24:17.520Z,100026.36
2019-01-03T05:27:28.184Z,100025.65
2019-01-03T05:30:21.182Z,100021.88
2019-01-03T05:33:14.446Z,100025.12
2019-01-03T05:36:05.392Z,100031.48
2019-01-03T05:39:04.887Z,100035.76
2019-01-03T05:42:03.316Z,100031.88
2019-01-03T05:45:06.763Z,100032.59
2019-01-03T05:48:01.355Z,100039.61
2019-01-03T05:50:53.675Z,100033.39
2019-01-03T05:53:38.266Z,100039.38
2019-01-03T05:56:34.366Z,100043.52
2019-01-03T05:59:24.544Z,100039.30
2019-01-03T06:02:15.545Z,100037.04
2019-01-03T06:05:04.897Z,100037.87
2019-01-03T06:08:06.905Z,100040.41
2019-01-03T06:10:56.190Z,100046.05
2019-01-03T06:13:46.832Z,100038.11
2019-01-03T06:16:38.011Z,100038.98
2019-01-03T06:19:37.228Z,100039.81
2019-01-03T06:22:33.704Z,99941.23
2019-01-03T06:25:25.886Z,100035.41
2019-01-03T06:28:12.371Z,100039.27
2019-01-03T06:31:03.943Z,100034.02
2019-01-03T06:33:54.600Z,100034.05
2019-01-03T06:36:45.020Z,100040.71
2019-01-03T06:39:45.055Z,100049.36
2019-01-03T06:42:52.433Z,100046.31
2019-01-03T06:45:42.347Z,100061.69
2019-01-03T06:48:31.776Z,100058.78
2019-01-03T06:51:29.614Z,100062.64
2019-01-03T06:54:18.814Z,100078.14
2019-01-03T06:57:24.176Z,100072.66
2019-01-03T07:00:30.432Z,100067.09
2019-01-03T07:03:17.861Z,100071.27
2019-01-03T07:06:09.056Z,100062.58
2019-01-03T07:09:23.354Z,100062.25
2019-01-03T07:12:13.919Z,100062.53
2019-01-03T07:15:21.461Z,100055.66
2019-01-03T07:18:12.011Z,100053.03
2019-01-03T07:21:04.402Z,100046.87
2019-01-03T07:23:54.688Z,100055.94
2019-01-03T07:26:43.607Z,100070.63
2019-01-03T07:29:40.562Z,100064.30
2019-01-03T07:32:32.990Z,100062.47
2019-01-03T07:35:22.023Z,100062.79
2019-01-03T07:38:13.862Z,100063.28
2019-01-03T07:41:15.463Z,100062.17
2019-01-03T07:44:22.915Z,100065.42
2019-01-03T07:47:12.986Z,100061.76
2019-01-03T07:50:06.250Z,100062.34
2019-01-03T07:52:55.967Z,100056.57
2019-01-03T07:55:47.381Z,100051.09
2019-01-03T07:58:41.201Z,100046.23
2019-01-03T08:01:34.509Z,100054.02
2019-01-03T08:04:25.247Z,100042.50
2019-01-03T08:07:19.192Z,100037.63
2019-01-03T08:10:10.488Z,100027.88
2019-01-03T08:13:10.795Z,100029.47
2019-01-03T08:16:04.391Z,100031.23
2019-01-03T08:18:56.989Z,100030.24
2019-01-03T08:21:48.727Z,100022.91
2019-01-03T08:24:38.994Z,100039.87
2019-01-03T08:27:32.005Z,100034.97
2019-01-03T08:30:25.214Z,100032.45
2019-01-03T08:33:14.786Z,100035.89
2019-01-03T08:36:11.587Z,100042.67
2019-01-03T08:39:09.041Z,100038.78
2019-01-03T08:42:04.371Z,100034.39
2019-01-03T08:45:06.791Z,100049.02
2019-01-03T08:47:58.543Z,100044.78
2019-01-03T08:50:49.401Z,100034.98
2019-01-03T08:53:50.347Z,100034.98
2019-01-03T08:56:44.251Z,100039.11
2019-01-03T08:59:34.266Z,100042.88
2019-01-03T09:02:27.490Z,100029.97
2019-01-03T09:05:18.318Z,100042.33
2019-01-03T09:08:20.996Z,100039.11
2019-01-03T09:11:24.918Z,100056.06
2019-01-03T09:14:16.663Z,100061.53
2019-01-03T09:17:09.308Z,100055.38
2019-01-03T09:19:59.545Z,100055.13
2019-01-03T09:22:50.286Z,100043.98
2019-01-03T09:25:46.898Z,100040.02
2019-01-03T09:28:37.491Z,100030.17
2019-01-03T09:31:41.810Z,100017.83
2019-01-03T09:34:36.559Z,100017.84
2019-01-03T09:37:31.594Z,100011.91
2019-01-03T09:40:22.846Z,100008.63
2019-01-03T09:43:23.737Z,100017.53
2019-01-03T09:45:56.592Z,100016.88
2019-01-03T09:48:31.328Z,100032.11
2019-01-03T09:51:03.709Z,100010.60
2019-01-03T09:53:35.158Z,100016.09
2019-01-03T09:56:07.771Z,100012.40
2019-01-03T09:58:40.870Z,100000.27
2019-01-03T10:01:12.719Z,100003.78
2019-01-03T10:03:47.261Z,100013.41
2019-01-03T10:06:19.810Z,100004.53
2019-01-03T10:08:53.735Z,100005.22
2019-01-03T10:11:25.920Z,99989.81
2019-01-03T10:13:58.903Z,99972.13
2019-01-03T10:16:30.183Z,99967.30
2019-01-03T10:19:02.994Z,99962.70
2019-01-03T10:21:35.855Z,99944.67
2019-01-03T10:24:07.868Z,99943.98
2019-01-03T10:26:42.509Z,99942.95
2019-01-03T10:29:15.237Z,99937.06
2019-01-03T10:31:47.923Z,99927.20
2019-01-03T10:34:23.488Z,99920.28
2019-01-03T10:36:54.969Z,99914.98
2019-01-03T10:39:27.830Z,99901.05
2019-01-03T10:41:59.951Z,99912.36
2019-01-03T10:44:32.849Z,99912.02
2019-01-03T10:47:07.301Z,99902.15
2019-01-03T10:49:41.568Z,99885.41
2019-01-03T10:52:13.895Z,99871.78
2019-01-03T10:54:45.099Z,99854.18
2019-01-03T10:57:18.056Z,99848.27
2019-01-03T10:59:53.760Z,99856.46
2019-01-03T11:02:26.640Z,99847.75
2019-01-03T11:05:00.097Z,99834.16
2019-01-03T11:07:33.168Z,99841.37
2019-01-03T11:10:06.312Z,99833.98
2019-01-03T11:12:38.322Z,99833.34
2019-01-03T11:15:12.107Z,99830.49
2019-01-03T11:17:45.907Z,99821.91
2019-01-03T11:20:20.047Z,99811.09
2019-01-03T11:22:52.994Z,99799.92
2019-01-03T11:25:25.558Z,99811.89
2019-01-03T11:27:58.244Z,99810.75
2019-01-03T11:30:32.736Z,99808.46
2019-01-03T11:33:05.656Z,99797.33
2019-01-03T11:35:39.191Z,99783.34
2019-01-03T11:38:11.858Z,99791.72
2019-01-03T11:40:45.293Z,99804.52
2019-01-03T11:43:19.350Z,99789.72
2019-01-03T11:45:52.278Z,99768.70
2019-01-03T11:48:26.268Z,99752.61
2019-01-03T11:50:59.176Z,99763.73
2019-01-03T11:53:30.438Z,99766.70
2019-01-03T11:56:04.993Z,99754.85
2019-01-03T11:58:37.172Z,99761.05
2019-01-03T12:01:08.388Z,99753.16
2019-01-03T12:03:43.827Z,99768.92
2019-01-03T12:06:17.353Z,99752.98
2019-01-03T12:08:50.892Z,99761.08
2019-01-03T12:11:23.335Z,99751.22
2019-01-03T12:13:54.634Z,99754.51
2019-01-03T12:16:26.236Z,99752.84
2019-01-03T12:18:58.425Z,99742.34
2019-01-03T12:21:32.428Z,99742.80
2019-01-03T12:24:08.217Z,99751.64
2019-01-03T12:26:40.072Z,99754.13
2019-01-03T12:29:13.464Z,99752.47
2019-01-03T12:31:47.338Z,99756.69
2019-01-03T12:34:21.351Z,99763.56
2019-01-03T12:36:53.401Z,99758.00
2019-01-03T12:39:25.504Z,99759.31
2019-01-03T12:41:59.444Z,99760.32
2019-01-03T12:44:31.061Z,99750.92
2019-01-03T12:47:03.426Z,99756.38
2019-01-03T12:49:37.479Z,99750.22
2019-01-03T12:52:10.413Z,99749.70
2019-01-03T12:54:44.505Z,99753.28
2019-01-03T12:57:17.908Z,99737.54
2019-01-03T12:59:51.425Z,99734.60
2019-01-03T13:02:25.512Z,99729.34
2019-01-03T13:04:58.724Z,99743.05
2019-01-03T13:07:32.536Z,99753.94
2019-01-03T13:10:07.085Z,99742.73
2019-01-03T13:12:40.522Z,99754.51
2019-01-03T13:15:13.637Z,99753.55
2019-01-03T13:17:49.402Z,99753.86
2019-01-03T13:20:21.669Z,99749.61
2019-01-03T13:22:55.278Z,99752.84
2019-01-03T13:25:26.624Z,99751.54
2019-01-03T13:27:58.567Z,99760.67
2019-01-03T13:30:30.701Z,99757.87
2019-01-03T13:33:03.890Z,99751.53
2019-01-03T13:35:37.697Z,99758.58
2019-01-03T13:38:11.554Z,99761.38
2019-01-03T13:40:45.571Z,99763.98
2019-01-03T13:43:18.812Z,99762.99
2019-01-03T13:45:51.671Z,99761.49
2019-01-03T13:48:23.842Z,99757.34
2019-01-03T13:50:57.835Z,99760.80
2019-01-03T13:53:29.801Z,99755.73
2019-01-03T13:56:01.762Z,99756.42
2019-01-03T13:58:35.085Z,99754.77
2019-01-03T14:01:08.872Z,99756.24
2019-01-03T14:03:41.855Z,99747.42
2019-01-03T14:06:15.915Z,99747.65
2019-01-03T14:08:48.917Z,99752.59
2019-01-03T14:11:22.845Z,99747.16
2019-01-03T14:13:56.949Z,99747.33
2019-01-03T14:16:29.951Z,99752.62
2019-01-03T14:19:05.587Z,99744.27
2019-01-03T14:21:38.912Z,99745.27
2019-01-03T14:24:11.042Z,99749.86
2019-01-03T14:26:46.527Z,99756.38
2019-01-03T14:29:18.044Z,99762.63
2019-01-03T14:31:51.997Z,99762.63
2019-01-03T14:34:25.078Z,99760.67
2019-01-03T14:36:59.216Z,99756.86
2019-01-03T14:39:32.998Z,99757.87
2019-01-03T14:42:07.027Z,99757.33
2019-01-03T14:44:40.064Z,99754.70
2019-01-03T14:47:13.017Z,99761.10
2019-01-03T14:49:44.309Z,99751.73
2019-01-03T14:52:16.174Z,99759.47
2019-01-03T14:54:49.004Z,99767.83
2019-01-03T14:57:23.062Z,99758.64
2019-01-03T14:59:56.970Z,99764.36
2019-01-03T15:02:30.078Z,99765.87
2019-01-03T15:05:04.915Z,99765.26
2019-01-03T15:07:36.941Z,99770.51
2019-01-03T15:10:10.392Z,99771.42
2019-01-03T15:12:44.306Z,99773.73
2019-01-03T15:15:17.154Z,99780.10
2019-01-03T15:17:51.247Z,99775.05
2019-01-03T15:20:24.436Z,99777.14
2019-01-03T15:22:58.175Z,99781.00
2019-01-03T15:25:30.204Z,99781.25
2019-01-03T15:28:02.150Z,99775.64
2019-01-03T15:30:33.733Z,99782.39
2019-01-03T15:33:06.232Z,99774.34
2019-01-03T15:35:41.882Z,99777.59
2019-01-03T15:38:13.156Z,99785.53
2019-01-03T15:40:44.499Z,99778.92
2019-01-03T15:43:19.975Z,99779.71
2019-01-03T15:45:51.311Z,99773.50
2019-01-03T15:48:26.186Z,99782.33
2019-01-03T15:50:59.360Z,99783.51
2019-01-03T15:53:33.108Z,99780.96
2019-01-03T15:56:06.383Z,99788.16
2019-01-03T15:58:37.634Z,99788.81
2019-01-03T16:01:11.541Z,99783.52
2019-01-03T16:03:45.430Z,99771.72
2019-01-03T16:06:20.001Z,99778.27
2019-01-03T16:08:52.398Z,99770.85
2019-01-03T16:11:25.501Z,99767.78
2019-01-03T16:13:59.338Z,99764.36
2019-01-03T16:16:33.411Z,99769.02
2019-01-03T16:19:06.608Z,99778.81
2019-01-03T16:21:39.433Z,99773.08
2019-01-03T16:24:10.799Z,99777.66
2019-01-03T16:26:45.241Z,99784.11
2019-01-03T16:29:19.382Z,99810.92
2019-01-03T16:31:51.633Z,99808.55
2019-01-03T16:34:24.454Z,99818.18
2019-01-03T16:36:58.677Z,99814.00
2019-01-03T16:39:32.584Z,99807.27
2019-01-03T16:42:05.491Z,99807.61
2019-01-03T16:44:38.382Z,99807.80
2019-01-03T16:47:13.094Z,99806.39
2019-01-03T16:49:44.572Z,99789.64
2019-01-03T16:52:16.704Z,99808.09
2019-01-03T16:54:48.559Z,99816.14
2019-01-03T16:57:19.876Z,99822.27
2019-01-03T16:59:52.702Z,99826.50
2019-01-03T17:02:26.677Z,99828.77
2019-01-03T17:05:00.890Z,99838.39
2019-01-03T17:07:33.778Z,99835.61
2019-01-03T17:10:11.380Z,99838.29
2019-01-03T17:12:44.771Z,99845.52
2019-01-03T17:15:16.706Z,99856.19
2019-01-03T17:17:49.734Z,99856.66
2019-01-03T17:20:22.791Z,99867.41
2019-01-03T17:22:56.468Z,99873.52
2019-01-03T17:25:28.829Z,99882.01
2019-01-03T17:28:05.063Z,99882.97
2019-01-03T17:30:36.856Z,99883.06
2019-01-03T17:33:12.411Z,99886.23
2019-01-03T17:35:44.448Z,99894.55
2019-01-03T17:38:17.894Z,99892.63
2019-01-03T17:40:51.809Z,99900.09
2019-01-03T17:43:24.940Z,99873.44
2019-01-03T17:45:58.920Z,99878.33
2019-01-03T17:48:32.729Z,99893.00
2019-01-03T17:51:05.224Z,99885.97
2019-01-03T17:53:36.894Z,99897.24
2019-01-03T17:56:10.811Z,99889.55
2019-01-03T17:58:43.827Z,99896.84
2019-01-03T18:01:17.888Z,99883.08
2019-01-03T18:03:52.105Z,99888.60
2019-01-03T18:06:25.972Z,99894.70
2019-01-03T18:08:58.911Z,99902.42
2019-01-03T18:11:32.853Z,99901.71
2019-01-03T18:14:06.859Z,99901.59
2019-01-03T18:16:38.898Z,99909.69
2019-01-03T18:19:12.772Z,99904.89
2019-01-03T18:21:46.042Z,99830.30
2019-01-03T18:24:19.029Z,99913.94
2019-01-03T18:26:54.520Z,99911.45
2019-01-03T18:29:26.317Z,99914.54
2019-01-03T18:31:59.970Z,99920.69
2019-01-03T18:34:32.280Z,99927.63
2019-01-03T18:37:04.096Z,99926.72
2019-01-03T18:39:38.053Z,99926.67
2019-01-03T18:42:11.097Z,99933.22
2019-01-03T18:44:45.119Z,99933.85
2019-01-03T18:47:18.019Z,99918.14
2019-01-03T18:49:49.267Z,99918.97
2019-01-03T18:52:23.195Z,99925.70
2019-01-03T18:54:56.168Z,99935.06
2019-01-03T18:57:27.441Z,99919.79
2019-01-03T19:00:00.253Z,99924.59
2019-01-03T19:02:32.189Z,99933.69
2019-01-03T19:05:03.605Z,99937.42
2019-01-03T19:07:36.620Z,99930.95
2019-01-03T19:10:10.845Z,99925.72
2019-01-03T19:12:43.016Z,99917.94
2019-01-03T19:15:17.031Z,99915.68
2019-01-03T19:17:50.162Z,99914.65
2019-01-03T19:20:24.283Z,99922.23
2019-01-03T19:22:56.227Z,99934.02
2019-01-03T19:25:27.473Z,99929.33
2019-01-03T19:28:00.120Z,99937.73
2019-01-03T19:30:33.299Z,99942.86
2019-01-03T19:33:05.495Z,99945.20
2019-01-03T19:35:38.298Z,99947.22
2019-01-03T19:38:11.213Z,99952.38
2019-01-03T19:40:42.504Z,99953.44
2019-01-03T19:43:15.351Z,99955.21
2019-01-03T19:45:49.340Z,99957.70
2019-01-03T19:48:22.351Z,99963.69
2019-01-03T19:50:58.035Z,99960.67
2019-01-03T19:53:30.285Z,99969.05
2019-01-03T19:56:03.430Z,99969.32
2019-01-03T19:58:38.727Z,99963.61
2019-01-03T20:01:11.452Z,99967.12
2019-01-03T20:03:44.471Z,99966.16
2019-01-03T20:06:15.786Z,99973.86
2019-01-03T20:08:48.385Z,99980.76
2019-01-03T20:11:22.608Z,99982.97
2019-01-03T20:13:56.473Z,99984.53
2019-01-03T20:16:27.778Z,99987.52
2019-01-03T20:19:00.599Z,99988.88
2019-01-03T20:21:34.543Z,99984.03
2019-01-03T20:24:06.254Z,99983.97
2019-01-03T20:26:37.533Z,99990.27
2019-01-03T20:29:09.622Z,99988.97
2019-01-03T20:31:43.477Z,99996.22
2019-01-03T20:34:17.370Z,100001.92
2019-01-03T20:36:50.723Z,99998.95
2019-01-03T20:39:24.594Z,99996.13
2019-01-03T20:42:00.090Z,99998.05
2019-01-03T20:44:33.537Z,100004.95
2019-01-03T20:47:05.505Z,99997.91
2019-01-03T20:49:37.508Z,99996.13
2019-01-03T20:52:09.546Z,99996.39
2019-01-03T20:54:42.700Z,99996.39
2019-01-03T20:57:16.906Z,100001.77
2019-01-03T20:59:49.664Z,100004.08
2019-01-03T21:02:24.567Z,100010.88
2019-01-03T21:04:57.636Z,100012.33
2019-01-03T21:07:30.695Z,100017.08
2019-01-03T21:10:08.083Z,100018.39
2019-01-03T21:12:39.814Z,100019.23
2019-01-03T21:15:15.288Z,100017.87
2019-01-03T21:17:47.643Z,100013.27
2019-01-03T21:20:21.625Z,100020.17
2019-01-03T21:22:55.734Z,100021.88
2019-01-03T21:25:27.161Z,100029.36
2019-01-03T21:28:01.423Z,100033.28
2019-01-03T21:30:33.888Z,100034.52
2019-01-03T21:33:06.787Z,100046.39
2019-01-03T21:35:38.062Z,100050.45
2019-01-03T21:38:11.751Z,100057.20
2019-01-03T21:40:45.929Z,100048.31
2019-01-03T21:43:19.223Z,100050.09
2019-01-03T21:45:53.034Z,100052.96
2019-01-03T21:48:26.066Z,100051.91
2019-01-03T21:51:00.032Z,100060.63
2019-01-03T21:53:33.861Z,100057.32
2019-01-03T21:56:07.809Z,100060.55
2019-01-03T21:58:40.868Z,100057.72
2019-01-03T22:01:14.873Z,100061.39
2019-01-03T22:03:47.963Z,100066.75
2019-01-03T22:06:21.979Z,100065.70
2019-01-03T22:08:55.542Z,100061.70
2019-01-03T22:11:27.239Z,100071.83
2019-01-03T22:14:00.062Z,100062.58
2019-01-03T22:16:35.594Z,100066.16
2019-01-03T22:19:06.993Z,100061.88
2019-01-03T22:21:40.078Z,100064.49
2019-01-03T22:24:15.586Z,100062.58
2019-01-03T22:26:48.107Z,100063.59
2019-01-03T22:29:21.193Z,100061.56
2019-01-03T22:31:55.244Z,100062.88
2019-01-03T22:34:27.777Z,100066.42
2019-01-03T22:36:59.045Z,100056.38
2019-01-03T22:39:34.702Z,100064.60
2019-01-03T22:42:07.164Z,100068.05
2019-01-03T22:44:41.474Z,100075.88
2019-01-03T22:47:15.292Z,100073.88
2019-01-03T22:49:48.251Z,100069.72
2019-01-03T22:52:22.193Z,100070.13
2019-01-03T22:54:57.771Z,100077.06
2019-01-03T22:57:30.283Z,100074.41
2019-01-03T23:00:03.463Z,100078.80
2019-01-03T23:02:37.287Z,100078.05
2019-01-03T23:05:12.688Z,100082.07
2019-01-03T23:07:45.845Z,100081.92
2019-01-03T23:10:18.382Z,100081.16
2019-01-03T23:12:51.325Z,100078.24
2019-01-03T23:15:27.088Z,100078.56
2019-01-03T23:17:58.827Z,100077.80
2019-01-03T23:20:32.394Z,100076.59
2019-01-03T23:23:06.352Z,100078.27
2019-01-03T23:25:39.573Z,100076.33
2019-01-03T23:28:13.303Z,100084.03
2019-01-03T23:30:46.946Z,100077.97
2019-01-03T23:33:20.420Z,100076.59
2019-01-03T23:35:54.576Z,100082.77
2019-01-03T23:38:27.157Z,100080.87
2019-01-03T23:41:03.021Z,100078.59
2019-01-03T23:43:35.463Z,100072.84
2019-01-03T23:46:09.402Z,100072.16
2019-01-03T23:48:42.341Z,100075.97
2019-01-03T23:51:16.445Z,100069.01
2019-01-03T23:53:50.360Z,100062.83
2019-01-03T23:56:24.171Z,100056.20
2019-01-03T23:58:57.648Z,100049.09
